createdAt,value
2023-01-07T00:01:39.852Z,6.50
2023-01-07T00:04:10.903Z,6.60
2023-01-07T00:06:40.266Z,5.80
2023-01-07T00:09:10.588Z,6.30
2023-01-07T00:11:39.422Z,6.57
2023-01-07T00:14:09.127Z,6.27
2023-01-07T00:16:38.199Z,7.00
2023-01-07T00:19:07.283Z,7.43
2023-01-07T00:21:34.778Z,7.73
2023-01-07T00:24:06.095Z,7.10
2023-01-07T00:26:36.129Z,8.03
2023-01-07T00:29:04.366Z,7.20
2023-01-07T00:31:37.110Z,6.73
2023-01-07T00:34:04.736Z,7.00
2023-01-07T00:36:34.097Z,7.37
2023-01-07T00:39:12.013Z,7.03
2023-01-07T00:41:39.382Z,6.73
2023-01-07T00:44:07.457Z,6.87
2023-01-07T00:46:35.857Z,6.57
2023-01-07T00:49:03.189Z,6.73
2023-01-07T00:51:30.450Z,7.07
2023-01-07T00:53:57.693Z,6.73
2023-01-07T00:56:24.847Z,6.23
2023-01-07T00:58:52.059Z,6.90
2023-01-07T01:01:19.400Z,7.47
2023-01-07T01:03:47.021Z,7.10
2023-01-07T01:06:16.438Z,7.47
2023-01-07T01:08:45.638Z,7.57
2023-01-07T01:11:14.986Z,6.97
2023-01-07T01:13:43.534Z,7.07
2023-01-07T01:16:13.602Z,7.47
2023-01-07T01:18:41.346Z,7.53
2023-01-07T01:21:12.345Z,7.83
2023-01-07T01:23:39.901Z,7.67
2023-01-07T01:26:13.483Z,6.97
2023-01-07T01:28:41.622Z,6.70
2023-01-07T01:31:09.526Z,6.70
2023-01-07T01:33:37.529Z,7.13
2023-01-07T01:36:06.661Z,7.43
2023-01-07T01:38:34.155Z,6.50
2023-01-07T01:41:02.357Z,6.87
2023-01-07T01:43:35.258Z,8.03
2023-01-07T01:46:12.882Z,8.10
2023-01-07T01:48:46.013Z,7.30
2023-01-07T01:51:15.961Z,7.40
2023-01-07T01:53:43.640Z,7.00
2023-01-07T01:56:18.159Z,6.67
2023-01-07T01:59:03.332Z,7.23
2023-01-07T02:01:32.712Z,6.13
2023-01-07T02:04:02.224Z,6.70
2023-01-07T02:06:33.033Z,6.60
2023-01-07T02:09:00.429Z,6.93
2023-01-07T02:11:51.582Z,7.47
2023-01-07T02:14:35.251Z,7.23
2023-01-07T02:17:22.663Z,8.70
2023-01-07T02:20:21.914Z,8.20
2023-01-07T02:23:21.355Z,7.70
2023-01-07T02:25:57.459Z,8.80
2023-01-07T02:28:38.267Z,8.63
2023-01-07T02:31:23.761Z,9.63
2023-01-07T02:33:50.920Z,9.87
2023-01-07T02:36:54.144Z,9.23
2023-01-07T02:39:27.159Z,9.47
2023-01-07T02:42:27.503Z,9.93
2023-01-07T02:45:18.916Z,9.57
2023-01-07T02:47:57.370Z,10.77
2023-01-07T02:50:24.688Z,10.33
2023-01-07T02:52:52.113Z,10.53
2023-01-07T02:55:54.722Z,10.37
2023-01-07T02:58:46.501Z,11.20
2023-01-07T03:01:40.065Z,10.77
2023-01-07T03:04:38.758Z,10.37
2023-01-07T03:07:24.919Z,12.27
2023-01-07T03:10:25.195Z,11.00
2023-01-07T03:13:12.266Z,10.87
2023-01-07T03:16:14.382Z,12.33
2023-01-07T03:18:49.304Z,11.37
2023-01-07T03:21:19.633Z,12.23
2023-01-07T03:23:53.328Z,11.43
2023-01-07T03:26:30.794Z,10.80
2023-01-07T03:29:00.315Z,11.83
2023-01-07T03:31:30.122Z,12.07
2023-01-07T03:34:09.582Z,11.70
2023-01-07T03:36:53.375Z,12.83
2023-01-07T03:39:24.603Z,12.23
2023-01-07T03:42:18.854Z,12.90
2023-01-07T03:44:46.168Z,12.90
2023-01-07T03:47:13.707Z,13.57
2023-01-07T03:49:42.021Z,11.47
2023-01-07T03:52:09.272Z,12.73
2023-01-07T03:54:36.669Z,12.27
2023-01-07T03:57:04.418Z,12.43
2023-01-07T03:59:31.783Z,12.90
2023-01-07T04:01:59.274Z,11.80
2023-01-07T04:04:26.651Z,14.13
2023-01-07T04:06:54.225Z,13.80
2023-01-07T04:09:22.313Z,12.53
2023-01-07T04:11:49.774Z,13.23
2023-01-07T04:14:17.211Z,11.20
2023-01-07T04:16:44.582Z,12.77
2023-01-07T04:19:11.986Z,13.70
2023-01-07T04:21:39.201Z,12.13
2023-01-07T04:24:06.855Z,13.00
2023-01-07T04:26:34.140Z,12.83
2023-01-07T04:29:01.430Z,12.07
2023-01-07T04:31:28.784Z,12.63
2023-01-07T04:33:55.960Z,15.33
2023-01-07T04:36:23.329Z,20.67
2023-01-07T04:38:50.679Z,27.60
2023-01-07T04:41:17.974Z,26.57
2023-01-07T04:43:45.305Z,27.43
2023-01-07T04:46:12.603Z,22.97
2023-01-07T04:48:40.031Z,25.53
2023-01-07T04:51:07.197Z,28.80
2023-01-07T04:53:34.431Z,22.50
2023-01-07T04:56:01.909Z,18.57
2023-01-07T04:58:29.178Z,17.00
2023-01-07T05:00:58.842Z,17.83
2023-01-07T05:03:26.236Z,16.03
2023-01-07T05:05:53.434Z,17.03
2023-01-07T05:08:20.599Z,16.53
2023-01-07T05:10:51.045Z,18.43
2023-01-07T05:13:20.762Z,16.93
2023-01-07T05:15:48.950Z,18.27
2023-01-07T05:18:16.908Z,18.90
2023-01-07T05:20:44.250Z,25.00
2023-01-07T05:23:11.520Z,27.27
2023-01-07T05:25:38.758Z,29.30
2023-01-07T05:28:06.131Z,36.90
2023-01-07T05:30:33.501Z,36.67
2023-01-07T05:33:01.465Z,42.97
2023-01-07T05:35:28.688Z,27.03
2023-01-07T05:37:55.854Z,28.73
2023-01-07T05:40:23.125Z,24.13
2023-01-07T05:42:50.270Z,22.90
2023-01-07T05:45:18.210Z,20.90
2023-01-07T05:47:45.419Z,20.70
2023-01-07T05:50:12.949Z,20.43
2023-01-07T05:52:40.485Z,22.83
2023-01-07T05:55:09.003Z,25.53
2023-01-07T05:57:36.230Z,26.60
2023-01-07T06:00:04.516Z,30.20
2023-01-07T06:02:31.982Z,28.63
2023-01-07T06:04:59.177Z,28.83
2023-01-07T06:07:26.598Z,24.67
2023-01-07T06:09:53.989Z,27.90
2023-01-07T06:12:21.263Z,25.57
2023-01-07T06:14:48.490Z,27.97
2023-01-07T06:17:15.786Z,22.57
2023-01-07T06:19:43.139Z,26.50
2023-01-07T06:22:11.664Z,30.33
2023-01-07T06:24:39.347Z,33.63
2023-01-07T06:27:06.728Z,27.77
2023-01-07T06:29:34.666Z,27.40
2023-01-07T06:32:02.238Z,24.13
2023-01-07T06:34:30.392Z,25.60
2023-01-07T06:36:57.947Z,24.23
2023-01-07T06:39:25.417Z,23.13
2023-01-07T06:41:52.666Z,24.80
2023-01-07T06:44:19.988Z,26.33
2023-01-07T06:46:47.677Z,26.57
2023-01-07T06:49:15.158Z,25.00
2023-01-07T06:51:42.593Z,26.17
2023-01-07T06:54:11.104Z,24.40
2023-01-07T06:56:38.405Z,27.10
2023-01-07T06:59:05.687Z,38.73
2023-01-07T07:01:33.100Z,30.87
2023-01-07T07:04:00.520Z,32.10
2023-01-07T07:06:27.739Z,28.23
2023-01-07T07:08:55.117Z,29.57
2023-01-07T07:11:22.255Z,25.93
2023-01-07T07:13:49.817Z,25.63
2023-01-07T07:16:17.581Z,27.90
2023-01-07T07:18:44.948Z,27.63
2023-01-07T07:21:12.220Z,33.33
2023-01-07T07:23:39.760Z,36.33
2023-01-07T07:26:07.200Z,253.37
2023-01-07T07:28:34.414Z,138.83
2023-01-07T07:31:01.625Z,64.50
2023-01-07T07:33:29.101Z,68.53
2023-01-07T07:35:56.508Z,58.87
2023-01-07T07:38:25.274Z,48.20
2023-01-07T07:40:53.173Z,50.60
2023-01-07T07:43:20.447Z,63.10
2023-01-07T07:45:47.632Z,65.67
2023-01-07T07:48:16.676Z,70.17
2023-01-07T07:50:43.953Z,40.83
2023-01-07T07:53:12.047Z,36.83
2023-01-07T07:55:40.009Z,27.07
2023-01-07T07:58:07.560Z,29.53
2023-01-07T08:00:35.042Z,32.60
2023-01-07T08:03:02.509Z,31.07
2023-01-07T08:05:30.265Z,34.77
2023-01-07T08:07:58.747Z,36.07
2023-01-07T08:10:28.305Z,31.27
2023-01-07T08:12:55.497Z,25.60
2023-01-07T08:15:22.718Z,31.93
2023-01-07T08:18:06.811Z,26.97
2023-01-07T08:20:36.140Z,30.53
2023-01-07T08:23:04.519Z,26.83
2023-01-07T08:25:33.351Z,21.47
2023-01-07T08:28:02.228Z,20.10
2023-01-07T08:30:31.253Z,26.93
2023-01-07T08:32:59.389Z,27.30
2023-01-07T08:35:27.183Z,21.40
2023-01-07T08:38:01.962Z,15.73
2023-01-07T08:40:29.298Z,25.77
2023-01-07T08:43:03.939Z,30.03
2023-01-07T08:45:31.861Z,30.67
2023-01-07T08:48:00.167Z,24.00
2023-01-07T08:50:30.214Z,16.27
2023-01-07T08:52:57.751Z,21.97
2023-01-07T08:55:25.112Z,22.87
2023-01-07T08:57:52.677Z,13.40
2023-01-07T09:00:20.646Z,15.27
2023-01-07T09:02:48.481Z,15.67
2023-01-07T09:05:16.279Z,13.93
2023-01-07T09:07:43.704Z,11.97
2023-01-07T09:10:12.371Z,13.90
2023-01-07T09:12:39.695Z,14.33
2023-01-07T09:15:07.862Z,14.90
2023-01-07T09:17:35.219Z,18.80
2023-01-07T09:20:03.948Z,18.93
2023-01-07T09:22:36.686Z,16.17
2023-01-07T09:25:05.540Z,13.53
2023-01-07T09:27:32.888Z,11.20
2023-01-07T09:30:00.272Z,11.23
2023-01-07T09:32:32.318Z,13.83
2023-01-07T09:34:59.579Z,8.00
2023-01-07T09:37:26.917Z,7.13
2023-01-07T09:39:54.225Z,6.30
2023-01-07T09:42:36.858Z,6.87
2023-01-07T09:45:27.770Z,7.20
2023-01-07T09:47:58.297Z,7.37
2023-01-07T09:50:42.408Z,6.20
2023-01-07T09:53:18.453Z,5.87
2023-01-07T09:56:11.816Z,6.37
2023-01-07T09:58:37.851Z,6.30
2023-01-07T10:01:20.530Z,6.13
2023-01-07T10:04:32.223Z,6.77
2023-01-07T10:07:15.650Z,6.73
2023-01-07T10:10:05.299Z,6.87
2023-01-07T10:12:55.342Z,6.00
2023-01-07T10:15:46.421Z,5.60
2023-01-07T10:18:40.584Z,4.97
2023-01-07T10:21:16.940Z,5.03
2023-01-07T10:23:54.310Z,4.73
2023-01-07T10:26:42.110Z,4.77
2023-01-07T10:29:13.824Z,4.67
2023-01-07T10:31:42.310Z,5.40
2023-01-07T10:34:29.395Z,6.77
2023-01-07T10:37:37.224Z,26.13
2023-01-07T10:40:16.994Z,9.90
2023-01-07T10:43:21.443Z,5.83
2023-01-07T10:45:57.212Z,5.23
2023-01-07T10:48:46.253Z,4.67
2023-01-07T10:51:32.436Z,4.73
2023-01-07T10:54:14.308Z,3.57
2023-01-07T10:56:52.251Z,5.37
2023-01-07T10:59:22.135Z,4.00
2023-01-07T11:01:53.319Z,4.13
2023-01-07T11:04:21.431Z,4.07
2023-01-07T11:06:58.781Z,4.33
2023-01-07T11:09:33.008Z,4.87
2023-01-07T11:12:06.880Z,6.50
2023-01-07T11:14:39.705Z,5.80
2023-01-07T11:17:32.615Z,7.20
2023-01-07T11:20:00.001Z,4.97
2023-01-07T11:22:27.549Z,4.30
2023-01-07T11:24:56.779Z,7.03
2023-01-07T11:27:26.741Z,4.33
2023-01-07T11:29:57.012Z,4.60
2023-01-07T11:32:30.690Z,6.20
2023-01-07T11:35:05.936Z,5.73
2023-01-07T11:37:46.108Z,6.10
2023-01-07T11:40:13.457Z,8.60
2023-01-07T11:42:55.982Z,9.97
2023-01-07T11:45:44.052Z,11.00
2023-01-07T11:48:40.456Z,10.40
2023-01-07T11:51:11.206Z,9.67
2023-01-07T11:53:51.098Z,9.17
2023-01-07T11:56:21.047Z,20.43
2023-01-07T11:58:51.177Z,13.03
2023-01-07T12:01:23.746Z,16.23
2023-01-07T12:03:54.467Z,9.80
2023-01-07T12:06:34.705Z,5.57
2023-01-07T12:09:14.033Z,15.40
2023-01-07T12:11:43.804Z,20.80
2023-01-07T12:14:34.586Z,14.53
2023-01-07T12:17:16.519Z,22.20
2023-01-07T12:20:05.382Z,10.40
2023-01-07T12:22:48.664Z,6.30
2023-01-07T12:25:48.527Z,6.20
2023-01-07T12:28:30.487Z,10.80
2023-01-07T12:31:22.082Z,19.23
2023-01-07T12:34:05.181Z,6.40
2023-01-07T12:37:02.365Z,5.80
2023-01-07T12:39:38.011Z,5.60
2023-01-07T12:42:18.733Z,6.17
2023-01-07T12:45:00.298Z,26.33
2023-01-07T12:47:36.261Z,10.00
2023-01-07T12:50:07.592Z,6.13
2023-01-07T12:52:57.821Z,6.27
2023-01-07T12:55:31.717Z,3.33
2023-01-07T12:58:21.751Z,5.03
2023-01-07T13:01:26.963Z,5.30
2023-01-07T13:04:33.086Z,2.93
2023-01-07T13:07:17.034Z,9.23
2023-01-07T13:10:03.147Z,19.07
2023-01-07T13:12:48.978Z,8.20
2023-01-07T13:15:21.857Z,8.00
2023-01-07T13:17:54.421Z,13.07
2023-01-07T13:20:42.514Z,15.40
2023-01-07T13:23:18.793Z,41.40
2023-01-07T13:26:10.490Z,7.57
2023-01-07T13:29:02.591Z,17.93
2023-01-07T13:31:54.518Z,26.83
2023-01-07T13:34:34.300Z,18.97
2023-01-07T13:37:51.428Z,26.17
2023-01-07T13:40:57.461Z,13.20
2023-01-07T13:44:04.663Z,14.17
2023-01-07T13:46:39.444Z,19.70
2023-01-07T13:49:21.599Z,24.87
2023-01-07T13:51:49.195Z,19.03
2023-01-07T13:54:48.687Z,24.60
2023-01-07T13:57:36.326Z,24.47
2023-01-07T14:00:07.873Z,35.77
2023-01-07T14:02:58.001Z,24.30
2023-01-07T14:05:28.305Z,36.20
2023-01-07T14:08:00.460Z,34.90
2023-01-07T14:10:33.309Z,15.83
2023-01-07T14:13:19.583Z,16.67
2023-01-07T14:15:55.871Z,37.20
2023-01-07T14:18:29.283Z,28.40
2023-01-07T14:21:19.561Z,16.00
2023-01-07T14:24:24.505Z,45.70
2023-01-07T14:26:54.401Z,30.40
2023-01-07T14:29:39.950Z,61.43
2023-01-07T14:32:29.232Z,170.17
2023-01-07T14:35:01.473Z,159.67
2023-01-07T14:37:42.546Z,72.93
2023-01-07T14:40:29.547Z,63.20
2023-01-07T14:42:58.364Z,34.90
2023-01-07T14:45:38.562Z,38.03
2023-01-07T14:48:08.510Z,34.63
2023-01-07T14:50:57.381Z,36.87
2023-01-07T14:53:43.497Z,42.77
2023-01-07T14:56:14.841Z,43.07
2023-01-07T14:58:56.145Z,46.57
2023-01-07T15:01:42.129Z,37.67
2023-01-07T15:04:27.384Z,38.10
2023-01-07T15:06:59.828Z,49.97
2023-01-07T15:10:27.556Z,35.47
2023-01-07T15:13:18.021Z,29.13
2023-01-07T15:16:02.032Z,31.47
2023-01-07T15:18:44.654Z,32.90
2023-01-07T15:21:43.515Z,44.10
2023-01-07T15:24:54.897Z,39.73
2023-01-07T15:27:39.312Z,35.10
2023-01-07T15:30:29.235Z,38.27
2023-01-07T15:33:12.671Z,48.17
2023-01-07T15:35:43.287Z,49.73
2023-01-07T15:38:31.287Z,55.37
2023-01-07T15:40:59.936Z,73.47
2023-01-07T15:43:30.921Z,102.73
2023-01-07T15:46:04.878Z,109.43
2023-01-07T15:48:32.568Z,95.37
2023-01-07T15:51:00.824Z,87.57
2023-01-07T15:53:31.527Z,90.30
2023-01-07T15:56:01.131Z,94.47
2023-01-07T15:58:55.411Z,99.83
2023-01-07T16:01:25.217Z,104.37
2023-01-07T16:03:56.321Z,104.40
2023-01-07T16:06:32.877Z,103.23
2023-01-07T16:09:04.679Z,98.37
2023-01-07T16:11:32.428Z,101.87
2023-01-07T16:14:02.736Z,93.97
2023-01-07T16:16:32.092Z,80.63
2023-01-07T16:19:02.070Z,84.77
2023-01-07T16:21:54.790Z,94.93
2023-01-07T16:24:22.323Z,71.03
2023-01-07T16:27:05.687Z,52.37
2023-01-07T16:29:46.673Z,52.13
2023-01-07T16:32:14.552Z,45.27
2023-01-07T16:34:42.417Z,58.53
2023-01-07T16:37:17.259Z,45.77
2023-01-07T16:39:51.568Z,35.23
2023-01-07T16:42:20.919Z,36.60
2023-01-07T16:44:50.084Z,36.70
2023-01-07T16:47:24.718Z,41.30
2023-01-07T16:49:58.464Z,42.30
2023-01-07T16:52:35.029Z,46.50
2023-01-07T16:55:02.332Z,41.90
2023-01-07T16:57:42.288Z,64.50
2023-01-07T17:00:18.668Z,53.33
2023-01-07T17:02:57.342Z,47.93
2023-01-07T17:05:27.467Z,50.07
2023-01-07T17:08:02.054Z,41.50
2023-01-07T17:10:35.409Z,38.37
2023-01-07T17:13:14.853Z,47.03
2023-01-07T17:15:43.805Z,36.60
2023-01-07T17:18:15.159Z,42.70
2023-01-07T17:20:50.911Z,38.13
2023-01-07T17:23:27.099Z,45.33
2023-01-07T17:26:18.540Z,35.27
2023-01-07T17:28:50.535Z,46.30
2023-01-07T17:31:18.367Z,49.60
2023-01-07T17:33:46.014Z,61.73
2023-01-07T17:36:24.404Z,51.40
2023-01-07T17:38:52.594Z,48.50
2023-01-07T17:41:40.193Z,98.17
2023-01-07T17:44:13.133Z,62.00
2023-01-07T17:46:42.626Z,43.43
2023-01-07T17:49:14.003Z,77.63
2023-01-07T17:51:44.500Z,96.67
2023-01-07T17:54:21.557Z,89.80
2023-01-07T17:56:49.160Z,59.40
2023-01-07T17:59:18.718Z,131.53
2023-01-07T18:01:46.786Z,146.23
2023-01-07T18:04:18.287Z,79.60
2023-01-07T18:06:46.035Z,64.80
2023-01-07T18:09:13.833Z,57.17
2023-01-07T18:12:05.005Z,49.20
2023-01-07T18:14:32.911Z,46.40
2023-01-07T18:17:00.196Z,56.00
2023-01-07T18:19:28.428Z,72.13
2023-01-07T18:21:55.587Z,86.67
2023-01-07T18:24:24.630Z,89.10
2023-01-07T18:26:52.062Z,80.73
2023-01-07T18:29:19.280Z,86.57
2023-01-07T18:31:46.848Z,121.93
2023-01-07T18:34:15.976Z,103.83
2023-01-07T18:36:43.738Z,98.87
2023-01-07T18:39:19.163Z,99.93
2023-01-07T18:41:49.097Z,93.50
2023-01-07T18:44:18.594Z,62.23
2023-01-07T18:46:46.471Z,98.13
2023-01-07T18:49:14.014Z,91.33
2023-01-07T18:51:41.405Z,71.53
2023-01-07T18:54:09.041Z,46.47
2023-01-07T18:56:36.273Z,35.53
2023-01-07T18:59:03.923Z,37.57
2023-01-07T19:01:31.472Z,39.00
2023-01-07T19:03:58.830Z,36.70
2023-01-07T19:06:27.525Z,36.30
2023-01-07T19:08:56.777Z,32.23
2023-01-07T19:11:24.004Z,35.77
2023-01-07T19:13:51.578Z,56.30
2023-01-07T19:16:18.912Z,70.27
2023-01-07T19:18:46.592Z,74.23
2023-01-07T19:21:14.759Z,84.87
2023-01-07T19:23:44.923Z,95.03
2023-01-07T19:26:13.046Z,84.10
2023-01-07T19:28:40.309Z,81.83
2023-01-07T19:31:09.314Z,72.27
2023-01-07T19:33:37.278Z,64.03
2023-01-07T19:36:12.882Z,60.07
2023-01-07T19:38:41.719Z,57.80
2023-01-07T19:41:11.065Z,58.17
2023-01-07T19:43:39.353Z,56.47
2023-01-07T19:46:08.404Z,56.20
2023-01-07T19:48:36.354Z,53.57
2023-01-07T19:51:05.565Z,47.70
2023-01-07T19:53:34.129Z,53.53
2023-01-07T19:56:03.245Z,63.27
2023-01-07T19:58:31.175Z,64.63
2023-01-07T20:01:08.489Z,61.17
2023-01-07T20:03:36.994Z,66.30
2023-01-07T20:06:10.194Z,69.27
2023-01-07T20:08:38.787Z,91.93
2023-01-07T20:11:07.872Z,77.60
2023-01-07T20:13:36.990Z,69.83
2023-01-07T20:16:23.995Z,60.17
2023-01-07T20:18:55.875Z,65.83
2023-01-07T20:21:28.822Z,62.30
2023-01-07T20:23:56.368Z,76.17
2023-01-07T20:26:26.112Z,74.57
2023-01-07T20:28:53.658Z,59.63
2023-01-07T20:31:23.486Z,54.90
2023-01-07T20:33:51.276Z,50.13
2023-01-07T20:36:21.098Z,46.97
2023-01-07T20:38:49.158Z,57.60
2023-01-07T20:41:21.573Z,51.93
2023-01-07T20:43:58.342Z,50.10
2023-01-07T20:46:28.418Z,73.67
2023-01-07T20:48:57.571Z,93.33
2023-01-07T20:51:25.226Z,100.43
2023-01-07T20:53:54.383Z,195.73
2023-01-07T20:56:23.596Z,149.47
2023-01-07T20:58:53.425Z,54.90
2023-01-07T21:01:21.867Z,32.03
2023-01-07T21:03:49.739Z,30.03
2023-01-07T21:06:19.898Z,29.87
2023-01-07T21:08:48.579Z,26.70
2023-01-07T21:11:21.504Z,24.23
2023-01-07T21:13:50.048Z,25.57
2023-01-07T21:16:17.794Z,24.50
2023-01-07T21:18:46.190Z,22.97
2023-01-07T21:21:19.590Z,24.53
2023-01-07T21:23:48.222Z,25.37
2023-01-07T21:26:16.476Z,23.10
2023-01-07T21:28:44.729Z,26.50
2023-01-07T21:31:14.151Z,26.13
2023-01-07T21:33:42.433Z,26.87
2023-01-07T21:36:15.807Z,27.47
2023-01-07T21:38:45.378Z,33.13
2023-01-07T21:41:15.629Z,34.53
2023-01-07T21:43:46.948Z,36.23
2023-01-07T21:46:17.458Z,37.20
2023-01-07T21:48:46.993Z,40.00
2023-01-07T21:51:20.609Z,48.07
2023-01-07T21:53:48.249Z,43.47
2023-01-07T21:56:18.528Z,43.97
2023-01-07T21:58:46.754Z,47.10
2023-01-07T22:01:14.993Z,47.40
2023-01-07T22:03:46.768Z,47.33
2023-01-07T22:06:20.567Z,46.20
2023-01-07T22:08:48.983Z,49.07
2023-01-07T22:11:18.173Z,50.73
2023-01-07T22:13:49.398Z,55.93
2023-01-07T22:16:16.629Z,60.47
2023-01-07T22:18:43.852Z,57.27
2023-01-07T22:21:11.172Z,58.10
2023-01-07T22:23:38.735Z,63.23
2023-01-07T22:26:07.260Z,63.17
2023-01-07T22:28:37.400Z,67.67
2023-01-07T22:31:20.658Z,64.47
2023-01-07T22:33:48.037Z,77.07
2023-01-07T22:36:21.853Z,64.27
2023-01-07T22:38:50.535Z,57.30
2023-01-07T22:41:18.822Z,52.40
2023-01-07T22:43:46.138Z,55.67
2023-01-07T22:46:21.277Z,56.33
2023-01-07T22:48:49.442Z,44.70
2023-01-07T22:51:27.378Z,39.60
2023-01-07T22:53:58.268Z,35.30
2023-01-07T22:56:26.396Z,42.20
2023-01-07T22:58:53.585Z,49.93
2023-01-07T23:01:21.050Z,35.10
2023-01-07T23:03:48.494Z,35.23
2023-01-07T23:06:16.588Z,37.93
2023-01-07T23:08:44.703Z,33.43
2023-01-07T23:11:32.107Z,32.10
2023-01-07T23:13:59.851Z,31.97
2023-01-07T23:16:27.162Z,29.50
2023-01-07T23:18:54.626Z,42.67
2023-01-07T23:21:21.797Z,32.23
2023-01-07T23:23:49.011Z,30.67
2023-01-07T23:26:17.148Z,33.53
2023-01-07T23:28:44.330Z,30.20
2023-01-07T23:31:12.286Z,29.63
2023-01-07T23:33:39.902Z,27.47
2023-01-07T23:36:09.529Z,24.73
2023-01-07T23:38:37.174Z,25.40
2023-01-07T23:41:07.172Z,25.57
2023-01-07T23:43:35.569Z,23.37
2023-01-07T23:46:05.169Z,22.97
2023-01-07T23:48:34.923Z,25.47
2023-01-07T23:51:11.618Z,29.10
2023-01-07T23:53:39.793Z,25.20
2023-01-07T23:56:08.139Z,27.37
2023-01-07T23:58:36.311Z,28.30
